Flight NumberQSM340 Date22.01.2021
Departure AirportRCTP Arrival AirportRJTT
Departure Time0.00Arrival Time2.48
Pilot In CommandSaeed Yousefi Block Time2.80 Hours
Pilot Rating100 % AircraftEP-QIF [ A340-300 ]


Distance1,147.00 Nm. Passengers356
Fuel Used28,681 Kg. Cargo166 Kg
Expense Details Income Details
Fuel Cost26,388 v$Ticket Sales113,920 v$
Pilot Salary42,262 v$ Cargo income372.00 v$
Crew Salary1,780 v$ Bonus50,312 v$
Gross Profit259,612 v$ ( 6,490,300 v$ )

Client Versionv2.4.0 Max Simrate1
Flight Critique Pilot CommentsRJTT 221400Z 36006KT CAVOK 11/06 Q1017 NOSIG - ILS31L